KVLD

Valdosta Regional Airport

Valdosta, Georgia, USA
KVLD 211728Z 2118/2218 26005KT P6SM SCT050 FM212000 25007KT P6SM VCTS SCT040CB FM220100 22005KT P6SM FEW050 SCT250 FM221500 25004KT P6SM SCT025
Issued Valid From Valid To
Jun-21 @ 17:28 UTC
(37 minutes ago)
Jun-21 @ 18:00 UTC
(5 minutes ago)
Jun-22 @ 18:00 UTC
(in 24 hours)
Jun-21 @ 18:00 to Jun-21 @ 20:00
KVLD 211728Z 2118/2218 26005KT P6SM SCT050
Wind Visibility Clouds
260° at 5 knots Greater than 6 miles
  • Scattered at 5,000' AGL
From Jun-21 @ 20:00 to Jun-22 @ 01:00
FM212000 25007KT P6SM VCTS SCT040CB
Wind Visibility Clouds Conditions
250° at 7 knots Greater than 6 miles
  • Scattered at 4,000' AGL
  • Area Thunderstorm
From Jun-22 @ 01:00 to Jun-22 @ 15:00
FM220100 22005KT P6SM FEW050 SCT250
Wind Visibility Clouds
220° at 5 knots Greater than 6 miles
  • Few at 5,000' AGL
  • Scattered at 25,000' AGL
From Jun-22 @ 15:00 to Jun-22 @ 18:00
FM221500 25004KT P6SM SCT025
Wind Visibility Clouds
250° at 4 knots Greater than 6 miles
  • Scattered at 2,500' AGL
KVLD 211728Z 2118/2218 26005KT P6SM SCT050 FM212000 25007KT P6SM VCTS SCT040CB FM220100 22005KT P6SM FEW050 SCT250 FM221500 25004KT P6SM SCT025
Issued Jun-21 @ 17:28 UTC
(37 minutes ago)
Valid From Jun-21 @ 18:00 UTC
(5 minutes ago)
Valid To Jun-22 @ 18:00 UTC
(in 24 hours)
Jun-21 @ 18:00 - Jun-21 @ 20:00
Wind Visibility
260° at 5 knots Greater than 6 miles
Clouds
  • Scattered at 5,000' AGL
From Jun-21 @ 20:00 - Jun-22 @ 01:00
Wind Visibility
250° at 7 knots Greater than 6 miles
Clouds
  • Scattered at 4,000' AGL
Conditions
  • Area Thunderstorm
From Jun-22 @ 01:00 - Jun-22 @ 15:00
Wind Visibility
220° at 5 knots Greater than 6 miles
Clouds
  • Few at 5,000' AGL
  • Scattered at 25,000' AGL
From Jun-22 @ 15:00 - Jun-22 @ 18:00
Wind Visibility
250° at 4 knots Greater than 6 miles
Clouds
  • Scattered at 2,500' AGL